Time;durP1;ratioP1;P1;durP2;ratioP2;P2;SDS_P1;SDS_P2;PMS_P1;PMS_P2;Temp;Humidity;BMP_temperature;BMP_pressure;BME280_temperature;BME280_humidity;BME280_pressure;Samples;Min_cycle;Max_cycle;Signal;HPM_P1;HPM_P2
2022/09/02 00:01:26;;;;;;;2.55;1.65;;;;;;;18.30;48.09;101401.53;3588764;39;20051;-64
2022/09/02 00:03:59;;;;;;;2.60;1.60;;;;;;;18.26;48.44;101397.31;3589552;39;20340;-64
2022/09/02 00:06:26;;;;;;;4.32;1.75;;;;;;;18.23;48.39;101396.72;3590103;39;20160;-64
2022/09/02 00:08:52;;;;;;;3.47;1.70;;;;;;;18.22;48.21;101401.28;3590994;39;20054;-64
2022/09/02 00:11:26;;;;;;;4.80;1.67;;;;;;;18.20;47.81;101391.53;3588134;39;20087;-64
2022/09/02 00:13:52;;;;;;;1.73;1.35;;;;;;;18.15;48.81;101386.50;3590770;39;20048;-64
2022/09/02 00:16:21;;;;;;;3.25;1.60;;;;;;;18.18;48.77;101394.41;3589306;39;20055;-64
2022/09/02 00:18:47;;;;;;;4.05;1.50;;;;;;;18.13;48.81;101384.88;3589582;39;20438;-64
2022/09/02 00:21:14;;;;;;;9.80;1.75;;;;;;;18.11;48.82;101382.31;3590407;39;20124;-64
2022/09/02 00:23:43;;;;;;;7.63;1.85;;;;;;;18.12;48.17;101388.63;3589089;39;20063;-64
2022/09/02 00:26:10;;;;;;;4.20;1.38;;;;;;;17.97;48.46;101363.56;3590603;39;20364;-64
2022/09/02 00:28:37;;;;;;;5.45;1.90;;;;;;;18.07;47.95;101387.13;3590371;39;20068;-64
2022/09/02 00:31:03;;;;;;;2.63;1.65;;;;;;;18.05;49.30;101388.28;3592939;39;20063;-63
2022/09/02 00:33:30;;;;;;;7.72;1.90;;;;;;;18.00;49.40;101388.63;3588056;39;20060;-64
2022/09/02 00:35:59;;;;;;;2.80;1.80;;;;;;;18.01;48.81;101384.06;3591138;39;20136;-64
2022/09/02 00:38:25;;;;;;;1.95;1.50;;;;;;;17.62;48.76;101324.69;3588872;39;20063;-64
2022/09/02 00:40:52;;;;;;;2.63;1.60;;;;;;;17.92;49.29;101373.94;3587435;39;20283;-64
2022/09/02 00:43:44;;;;;;;3.58;1.75;;;;;;;17.92;48.84;101374.84;3588101;39;20058;-64
2022/09/02 00:46:15;;;;;;;2.63;1.65;;;;;;;17.94;48.90;101382.84;3590863;39;20047;-64
2022/09/02 00:48:54;;;;;;;1.70;1.60;;;;;;;17.92;48.28;101376.66;3591375;39;20314;-65
2022/09/02 00:51:22;;;;;;;3.20;1.60;;;;;;;17.88;49.30;101370.63;3586946;39;20333;-65
2022/09/02 00:53:50;;;;;;;7.75;1.90;;;;;;;17.86;48.98;101373.50;3589694;39;20298;-64
2022/09/02 00:56:26;;;;;;;2.03;1.83;;;;;;;17.82;48.91;101372.03;3589745;39;20058;-64
2022/09/02 00:58:55;;;;;;;3.25;2.10;;;;;;;17.81;49.74;101366.69;3586747;39;20052;-64
2022/09/02 01:01:21;;;;;;;3.17;2.00;;;;;;;17.79;49.47;101371.41;3588441;39;20473;-64
2022/09/02 01:03:49;;;;;;;4.28;1.60;;;;;;;17.75;49.15;101364.47;3589435;39;20044;-64
2022/09/02 01:06:20;;;;;;;3.17;1.95;;;;;;;17.71;49.60;101358.41;3589213;39;20051;-65
2022/09/02 01:08:56;;;;;;;3.28;2.28;;;;;;;17.66;49.69;101360.66;3590365;39;20092;-66
2022/09/02 01:11:22;;;;;;;4.07;1.70;;;;;;;17.68;49.86;101364.13;3590072;39;20128;-65
2022/09/02 01:13:48;;;;;;;3.75;1.83;;;;;;;17.65;49.75;101369.81;3589349;39;20125;-65
2022/09/02 01:16:38;;;;;;;3.10;1.90;;;;;;;17.62;49.92;101359.19;3588955;39;20290;-65
2022/09/02 01:19:15;;;;;;;7.40;2.08;;;;;;;17.59;50.34;101362.16;3588234;39;20163;-65
2022/09/02 01:21:56;;;;;;;2.50;2.05;;;;;;;17.54;49.73;101367.13;3589628;39;20170;-65
2022/09/02 01:24:30;;;;;;;4.00;2.15;;;;;;;17.29;50.45;101333.81;3589599;39;20059;-65
2022/09/02 01:26:58;;;;;;;3.53;1.90;;;;;;;17.47;50.33;101364.03;3589159;39;20055;-65
2022/09/02 01:29:27;;;;;;;7.47;2.47;;;;;;;17.47;50.64;101363.16;3577924;40;20056;-65
2022/09/02 01:31:53;;;;;;;7.55;1.98;;;;;;;17.43;50.56;101361.69;3587938;39;20047;-65
2022/09/02 01:34:19;;;;;;;2.70;2.00;;;;;;;17.43;50.81;101365.28;3588204;39;20059;-65
2022/09/02 01:36:44;;;;;;;6.53;2.10;;;;;;;17.42;50.34;101368.13;3589580;39;20059;-64
2022/09/02 01:39:12;;;;;;;2.63;1.75;;;;;;;17.37;51.06;101366.63;3588723;39;20072;-64
2022/09/02 01:41:38;;;;;;;5.00;2.15;;;;;;;17.32;50.65;101363.44;3587535;39;20075;-64
2022/09/02 01:44:05;;;;;;;7.38;2.03;;;;;;;16.89;50.92;101296.31;3588376;39;20402;-64
2022/09/02 01:46:33;;;;;;;4.07;1.90;;;;;;;17.28;50.54;101355.66;3589876;39;20487;-64
2022/09/02 01:48:59;;;;;;;3.53;2.33;;;;;;;17.26;50.88;101352.22;3589070;39;20067;-64
2022/09/02 01:51:25;;;;;;;5.00;1.90;;;;;;;17.22;50.97;101350.72;3587627;39;20063;-65
2022/09/02 01:53:50;;;;;;;1.77;1.67;;;;;;;17.20;51.39;101353.56;3589038;39;20063;-65
2022/09/02 01:56:16;;;;;;;5.25;1.90;;;;;;;17.01;51.20;101327.03;3588975;39;20456;-65
2022/09/02 01:58:42;;;;;;;3.63;2.25;;;;;;;17.12;51.75;101351.47;3587925;39;20114;-65
2022/09/02 02:01:10;;;;;;;5.72;1.95;;;;;;;17.10;51.23;101348.03;3588636;39;20072;-66
2022/09/02 02:03:37;;;;;;;2.78;2.00;;;;;;;17.10;51.43;101348.03;3588312;39;20048;-65
2022/09/02 02:06:15;;;;;;;2.88;2.15;;;;;;;17.07;51.14;101351.00;3588962;39;20125;-65
2022/09/02 02:08:42;;;;;;;5.78;1.95;;;;;;;17.09;51.92;101359.88;3586304;39;20064;-64
2022/09/02 02:11:09;;;;;;;4.18;1.95;;;;;;;16.83;51.48;101318.50;3590561;39;20113;-64
2022/09/02 02:13:35;;;;;;;3.85;2.22;;;;;;;17.06;51.47;101351.09;3589908;39;20088;-64
2022/09/02 02:16:02;;;;;;;2.83;2.10;;;;;;;17.04;51.24;101347.66;3588431;39;20051;-64
2022/09/02 02:18:28;;;;;;;4.13;2.22;;;;;;;17.06;51.11;101353.81;3587535;39;20044;-64
2022/09/02 02:20:54;;;;;;;4.18;2.10;;;;;;;17.05;51.01;101349.38;3589840;39;20070;-64
2022/09/02 02:23:21;;;;;;;3.00;1.80;;;;;;;17.06;50.96;101353.81;3588886;39;20052;-64
2022/09/02 02:25:47;;;;;;;5.40;2.35;;;;;;;17.06;51.51;101342.94;3587482;39;20048;-65
2022/09/02 02:28:13;;;;;;;5.60;2.22;;;;;;;17.10;51.27;101353.47;3589080;39;20401;-65
2022/09/02 02:30:39;;;;;;;4.43;2.08;;;;;;;16.82;51.33;101294.22;3587673;39;20055;-65
2022/09/02 02:33:05;;;;;;;4.03;2.22;;;;;;;17.06;51.40;101351.09;3588730;39;20062;-65
2022/09/02 02:35:31;;;;;;;3.05;2.20;;;;;;;17.05;52.05;101347.53;3588131;39;20051;-64
2022/09/02 02:37:56;;;;;;;3.95;1.77;;;;;;;17.06;51.75;101345.66;3590832;39;20068;-65
2022/09/02 02:40:27;;;;;;;2.20;1.98;;;;;;;17.07;51.83;101339.28;3589671;39;20047;-65
2022/09/02 02:42:53;;;;;;;6.55;1.95;;;;;;;17.07;51.67;101340.13;3590091;39;20493;-65
2022/09/02 02:45:20;;;;;;;4.53;2.13;;;;;;;17.07;51.49;101337.41;3592024;39;20099;-65
2022/09/02 02:47:47;;;;;;;2.95;2.08;;;;;;;17.07;52.13;101336.56;3592345;39;20048;-66
2022/09/02 02:50:16;;;;;;;4.07;1.88;;;;;;;17.04;51.96;101332.22;3590417;39;20311;-66
2022/09/02 02:52:43;;;;;;;2.40;2.00;;;;;;;17.01;52.09;101342.47;3592733;39;20060;-65
2022/09/02 02:55:12;;;;;;;6.18;2.15;;;;;;;17.00;52.04;101336.19;3591904;39;20113;-65
2022/09/02 02:57:39;;;;;;;3.28;2.05;;;;;;;17.02;52.44;101336.06;3588312;39;20051;-65
2022/09/02 03:00:34;;;;;;;3.88;1.95;;;;;;;17.02;51.96;101336.06;3590085;39;20059;-65
2022/09/02 03:03:06;;;;;;;4.22;2.53;;;;;;;16.96;52.19;101340.13;3591648;39;20047;-66
2022/09/02 03:05:36;;;;;;;2.53;1.92;;;;;;;16.99;52.43;101329.00;3589872;39;20060;-64
2022/09/02 03:08:08;;;;;;;5.15;2.17;;;;;;;16.99;52.42;101334.44;3590732;39;20063;-64
2022/09/02 03:10:37;;;;;;;4.13;2.78;;;;;;;16.96;52.51;101326.53;3589910;39;20048;-64
2022/09/02 03:13:03;;;;;;;3.72;2.60;;;;;;;16.94;52.16;101332.09;3589237;39;20059;-65
2022/09/02 03:15:29;;;;;;;3.13;2.45;;;;;;;16.92;52.27;101330.50;3589621;39;20425;-65
2022/09/02 03:17:56;;;;;;;4.68;2.95;;;;;;;16.88;52.32;101326.31;3591297;39;21171;-65
2022/09/02 03:20:23;;;;;;;5.43;2.95;;;;;;;16.89;52.03;101334.31;3591321;39;20088;-65
2022/09/02 03:22:50;;;;;;;8.00;3.38;;;;;;;16.83;52.60;101321.22;3589441;39;20471;-65
2022/09/02 03:25:19;;;;;;;7.68;3.40;;;;;;;16.85;52.27;101327.41;3591804;39;20208;-65
2022/09/02 03:27:47;;;;;;;6.60;3.85;;;;;;;16.83;52.15;101332.09;3589003;39;20051;-65
2022/09/02 03:30:19;;;;;;;6.93;3.40;;;;;;;16.82;52.53;101322.22;3589705;39;20113;-66
2022/09/02 03:32:45;;;;;;;8.00;3.55;;;;;;;16.77;52.84;101324.44;3590888;39;20056;-66
2022/09/02 03:35:17;;;;;;;8.82;3.58;;;;;;;16.75;52.87;101321.00;3592234;39;20066;-65
2022/09/02 03:37:44;;;;;;;9.77;3.83;;;;;;;16.74;52.72;101319.22;3580807;39;20059;-65
2022/09/02 03:40:17;;;;;;;5.57;3.25;;;;;;;16.71;52.54;101320.34;3589538;39;20055;-65
2022/09/02 03:42:43;;;;;;;7.20;3.92;;;;;;;16.70;52.86;101317.75;3589286;39;20063;-66
2022/09/02 03:45:11;;;;;;;4.78;3.30;;;;;;;16.65;53.24;101309.09;3590243;39;20267;-66
2022/09/02 03:47:42;;;;;;;5.72;3.30;;;;;;;16.59;53.08;101306.91;3589329;39;20044;-66
2022/09/02 03:50:08;;;;;;;7.57;3.65;;;;;;;16.59;52.90;101315.03;3591976;39;20067;-65
2022/09/02 03:52:34;;;;;;;7.72;3.53;;;;;;;16.55;52.98;101313.53;3589749;39;20071;-65
2022/09/02 03:54:59;;;;;;;6.20;3.72;;;;;;;16.53;53.25;101304.66;3591800;39;20055;-65
2022/09/02 03:57:26;;;;;;;6.65;3.40;;;;;;;16.48;52.89;101303.16;3592242;39;20149;-65
2022/09/02 03:59:52;;;;;;;11.00;3.63;;;;;;;16.47;53.23;101298.72;3593561;39;20067;-65
2022/09/02 04:02:18;;;;;;;7.22;4.07;;;;;;;16.45;53.75;101308.81;3590623;39;20387;-64
2022/09/02 04:04:44;;;;;;;6.07;3.70;;;;;;;16.41;53.27;101301.91;3588764;39;20060;-65
2022/09/02 04:07:09;;;;;;;4.88;3.85;;;;;;;16.38;53.56;101295.88;3588711;39;20091;-65
2022/09/02 04:09:35;;;;;;;8.95;4.00;;;;;;;16.34;53.71;101299.81;3590632;39;20048;-64
2022/09/02 04:12:03;;;;;;;6.78;4.25;;;;;;;16.29;53.91;101296.59;3589436;39;20302;-65
2022/09/02 04:14:29;;;;;;;8.40;4.32;;;;;;;16.28;54.08;101295.75;3589616;39;20059;-65
2022/09/02 04:16:55;;;;;;;8.38;4.28;;;;;;;16.28;54.35;101289.44;3591734;39;20438;-65
2022/09/02 04:19:20;;;;;;;9.35;4.55;;;;;;;16.23;54.09;101289.78;3587839;39;20313;-65
2022/09/02 04:21:46;;;;;;;7.82;4.53;;;;;;;16.21;54.45;101289.06;3589128;39;20072;-64
2022/09/02 04:24:12;;;;;;;8.75;4.80;;;;;;;16.20;54.54;101292.75;3590902;39;20051;-64
2022/09/02 04:26:39;;;;;;;10.10;6.07;;;;;;;15.89;54.83;101240.03;3587719;39;20063;-65
2022/09/02 04:29:06;;;;;;;13.27;7.35;;;;;;;16.18;54.74;101294.75;3590477;39;20047;-65
2022/09/02 04:31:32;;;;;;;12.55;7.28;;;;;;;16.19;54.65;101293.75;3589727;39;20302;-65
2022/09/02 04:33:59;;;;;;;9.85;5.28;;;;;;;15.92;54.65;101245.22;3589138;39;20059;-65
2022/09/02 04:36:27;;;;;;;8.38;5.10;;;;;;;16.02;54.90;101257.09;3590337;39;20394;-65
2022/09/02 04:38:53;;;;;;;9.43;5.30;;;;;;;16.17;55.25;101284.84;3588775;39;20078;-65
2022/09/02 04:41:27;;;;;;;11.50;5.68;;;;;;;16.19;54.83;101282.91;3588885;39;20101;-65
2022/09/02 04:43:57;;;;;;;13.63;5.65;;;;;;;16.19;54.77;101272.03;3589455;39;20105;-65
2022/09/02 04:46:24;;;;;;;12.73;5.63;;;;;;;16.29;54.65;101281.19;3589594;39;20043;-65
2022/09/02 04:48:50;;;;;;;13.85;6.38;;;;;;;16.35;54.83;101283.41;3588643;39;20051;-65
2022/09/02 04:51:22;;;;;;;12.35;5.93;;;;;;;16.36;54.61;101281.56;3587622;39;20091;-65
2022/09/02 04:53:51;;;;;;;18.50;6.35;;;;;;;16.43;54.50;101283.69;3589598;39;20060;-65
2022/09/02 04:56:24;;;;;;;15.57;7.25;;;;;;;16.34;54.64;101262.69;3581850;40;20052;-65
2022/09/02 04:58:51;;;;;;;12.70;6.63;;;;;;;16.53;54.64;101282.94;3588853;39;20131;-65
2022/09/02 05:01:22;;;;;;;15.32;7.82;;;;;;;16.51;54.48;101269.50;3584395;39;20063;-64
2022/09/02 05:03:49;;;;;;;25.38;9.45;;;;;;;16.61;53.99;101280.47;3587231;39;20167;-64
2022/09/02 05:06:20;;;;;;;24.02;9.23;;;;;;;16.74;53.44;101292.06;3589879;39;20056;-64
2022/09/02 05:08:48;;;;;;;20.05;9.27;;;;;;;16.80;53.50;101285.31;3587762;39;20060;-64
2022/09/02 05:11:19;;;;;;;20.23;9.38;;;;;;;16.86;52.97;101291.13;3590154;39;20116;-65
2022/09/02 05:13:50;;;;;;;17.98;9.32;;;;;;;16.91;52.83;101288.03;3587534;39;20097;-64
2022/09/02 05:16:21;;;;;;;23.50;9.95;;;;;;;16.97;53.09;101284.84;3590778;39;20051;-64
2022/09/02 05:18:47;;;;;;;22.15;10.43;;;;;;;17.05;53.16;101289.63;3588866;39;20059;-64
2022/09/02 05:21:13;;;;;;;23.08;11.10;;;;;;;17.08;52.55;101290.22;3587944;39;20071;-65
2022/09/02 05:23:39;;;;;;;21.23;10.80;;;;;;;17.13;52.54;101282.59;3592011;39;20306;-65
2022/09/02 05:26:09;;;;;;;23.90;11.82;;;;;;;17.19;52.63;101283.94;3590376;39;20134;-65
2022/09/02 05:28:35;;;;;;;22.13;11.73;;;;;;;17.20;52.69;101272.06;3590657;39;20054;-64
2022/09/02 05:31:07;;;;;;;23.00;12.00;;;;;;;17.32;51.89;101283.78;3589540;39;20118;-65
2022/09/02 05:33:39;;;;;;;26.00;12.27;;;;;;;17.37;52.76;101286.97;3582857;39;20048;-64
2022/09/02 05:36:18;;;;;;;21.42;12.32;;;;;;;17.38;52.65;101275.97;3590348;39;20283;-65
2022/09/02 05:38:45;;;;;;;28.17;14.10;;;;;;;17.45;51.99;101292.63;3591097;39;20058;-65
2022/09/02 05:41:24;;;;;;;24.35;13.15;;;;;;;17.50;52.69;101294.97;3590249;39;20047;-64
2022/09/02 05:43:56;;;;;;;24.52;13.32;;;;;;;17.56;51.68;101289.00;3591015;39;20727;-64
2022/09/02 05:46:24;;;;;;;26.27;14.55;;;;;;;17.56;51.47;101273.56;3591446;39;20423;-66
2022/09/02 05:49:07;;;;;;;29.67;14.50;;;;;;;17.66;51.65;101284.53;3589689;39;20107;-66
2022/09/02 05:51:53;;;;;;;28.83;14.35;;;;;;;17.73;51.57;101285.75;3588003;39;20083;-65
2022/09/02 05:54:29;;;;;;;28.90;14.13;;;;;;;17.78;51.17;101294.38;3592071;39;20047;-66
2022/09/02 05:57:00;;;;;;;30.48;14.30;;;;;;;17.81;51.30;101279.69;3593779;39;20153;-66
2022/09/02 05:59:29;;;;;;;26.77;13.40;;;;;;;17.85;51.33;101282.00;3591983;39;20052;-66
2022/09/02 06:01:55;;;;;;;28.35;14.13;;;;;;;17.61;50.72;101240.56;3591214;39;20083;-66
2022/09/02 06:04:21;;;;;;;25.13;13.50;;;;;;;17.93;51.07;101280.50;3591106;39;20072;-65
2022/09/02 06:06:49;;;;;;;26.08;13.45;;;;;;;17.95;50.71;101278.50;3594986;39;20062;-65
2022/09/02 06:09:20;;;;;;;25.83;12.95;;;;;;;17.91;50.60;101260.72;3590512;39;20319;-66
2022/09/02 06:11:48;;;;;;;24.67;13.20;;;;;;;18.06;50.40;101286.59;3590819;39;20060;-66
2022/09/02 06:14:23;;;;;;;27.42;14.23;;;;;;;18.02;50.97;101274.28;3595027;39;20067;-65
2022/09/02 06:16:52;;;;;;;27.95;13.43;;;;;;;17.98;51.04;101272.78;3594452;39;20512;-65
2022/09/02 06:19:17;;;;;;;24.58;12.77;;;;;;;18.08;50.90;101285.47;3592752;39;20059;-65
2022/09/02 06:21:43;;;;;;;27.73;13.82;;;;;;;18.00;51.02;101254.47;3593773;39;20091;-65
2022/09/02 06:24:11;;;;;;;27.27;12.25;;;;;;;18.20;51.10;101280.81;3595903;39;20402;-65
2022/09/02 06:26:39;;;;;;;32.40;13.85;;;;;;;18.24;50.26;101282.28;3593669;39;20051;-66
2022/09/02 06:29:07;;;;;;;24.50;13.80;;;;;;;18.27;50.40;101283.91;3595657;39;20066;-65
2022/09/02 06:31:33;;;;;;;28.67;14.73;;;;;;;18.30;50.68;101281.75;3591066;39;20059;-65
2022/09/02 06:34:00;;;;;;;26.25;13.13;;;;;;;18.36;51.32;101277.63;3589602;39;20063;-65
2022/09/02 06:36:28;;;;;;;26.88;14.07;;;;;;;18.40;50.97;101262.75;3591162;39;20060;-65
2022/09/02 06:38:57;;;;;;;30.02;14.18;;;;;;;18.48;50.43;101268.38;3590610;39;20146;-65
2022/09/02 06:41:28;;;;;;;30.90;14.80;;;;;;;18.62;49.76;101280.78;3591488;39;20071;-66
2022/09/02 06:44:02;;;;;;;26.25;14.00;;;;;;;18.65;49.29;101277.78;3589239;39;20065;-65
2022/09/02 06:46:42;;;;;;;30.17;14.13;;;;;;;18.68;50.33;101277.53;3590941;39;20059;-65
2022/09/02 06:49:09;;;;;;;34.67;14.50;;;;;;;18.71;48.91;101277.25;3591857;39;20064;-65
2022/09/02 06:51:40;;;;;;;30.55;14.70;;;;;;;18.74;49.74;101276.13;3589873;39;20052;-66
2022/09/02 06:54:12;;;;;;;29.65;15.02;;;;;;;18.81;49.07;101271.00;3591958;39;20059;-65
2022/09/02 06:56:38;;;;;;;24.08;13.73;;;;;;;18.88;49.28;101272.19;3588689;39;20047;-65
2022/09/02 06:59:06;;;;;;;30.23;14.63;;;;;;;18.88;49.78;101255.84;3589143;39;20133;-66
2022/09/02 07:01:33;;;;;;;26.00;13.20;;;;;;;19.07;48.94;101272.25;3591521;39;20039;-65
2022/09/02 07:06:48;;;;;;;26.77;14.07;;;;;;;19.16;48.21;101263.22;3589480;39;20055;-65
2022/09/02 07:09:20;;;;;;;30.30;14.43;;;;;;;19.22;47.64;101264.53;3589836;39;20059;-65
2022/09/02 07:11:47;;;;;;;27.02;13.35;;;;;;;19.26;48.40;101260.53;3589627;39;20465;-66
2022/09/02 07:14:19;;;;;;;26.23;13.95;;;;;;;19.38;49.30;101264.00;3590265;39;20120;-66
2022/09/02 07:16:51;;;;;;;25.80;13.25;;;;;;;19.45;47.94;101262.41;3589456;39;20067;-66
2022/09/02 07:19:19;;;;;;;34.63;13.70;;;;;;;19.46;47.44;101258.69;3588624;39;20051;-65
2022/09/02 07:21:46;;;;;;;26.80;13.10;;;;;;;19.49;48.44;101267.44;3589674;39;20067;-66
2022/09/02 07:24:14;;;;;;;30.35;13.52;;;;;;;19.57;48.48;101254.94;3590100;39;20376;-66
2022/09/02 07:26:41;;;;;;;31.60;12.73;;;;;;;19.61;47.63;101254.53;3588298;39;20055;-66
2022/09/02 07:29:08;;;;;;;22.25;12.00;;;;;;;19.68;47.48;101255.72;3587843;39;20103;-65
2022/09/02 07:31:42;;;;;;;23.17;12.57;;;;;;;19.69;47.54;101252.00;3589187;39;20058;-65
2022/09/02 07:34:09;;;;;;;26.17;12.35;;;;;;;19.72;47.02;101256.28;3589959;39;20066;-65
2022/09/02 07:36:36;;;;;;;22.60;12.43;;;;;;;19.76;47.59;101257.75;3587279;39;20413;-65
2022/09/02 07:39:07;;;;;;;24.17;11.38;;;;;;;19.76;47.57;101255.00;3588556;39;20409;-66
2022/09/02 07:41:33;;;;;;;27.05;12.25;;;;;;;19.84;47.92;101257.00;3590766;39;20310;-65
2022/09/02 07:43:59;;;;;;;22.33;12.05;;;;;;;19.85;47.13;101251.41;3589015;39;20244;-65
2022/09/02 07:46:25;;;;;;;23.58;11.45;;;;;;;;;;3587643;39;20371;-66
2022/09/02 07:48:51;;;;;;;29.35;11.30;;;;;;;20.05;47.46;101251.38;3589588;39;20051;-65
2022/09/02 07:51:19;;;;;;;24.80;12.93;;;;;;;19.74;46.66;101199.72;3589395;39;20363;-65
2022/09/02 07:53:45;;;;;;;28.17;11.90;;;;;;;20.13;46.24;101260.53;3589201;39;20062;-66
2022/09/02 07:56:12;;;;;;;23.90;11.40;;;;;;;20.03;47.13;101237.88;3589651;39;20499;-65
2022/09/02 07:58:40;;;;;;;30.20;12.43;;;;;;;20.24;47.31;101261.41;3589754;39;20280;-65
2022/09/02 08:01:06;;;;;;;26.65;12.25;;;;;;;20.31;46.81;101257.06;3588109;39;20361;-66
2022/09/02 08:03:33;;;;;;;27.58;11.73;;;;;;;20.35;46.60;101256.63;3578094;39;20052;-66
2022/09/02 08:05:59;;;;;;;21.67;11.15;;;;;;;20.38;46.56;101255.47;3589360;39;20441;-66
2022/09/02 08:08:26;;;;;;;23.83;11.23;;;;;;;20.40;45.91;101256.19;3591690;39;20116;-66
2022/09/02 08:10:54;;;;;;;22.80;10.68;;;;;;;20.44;46.46;101257.59;3590171;39;20066;-66
2022/09/02 08:13:21;;;;;;;28.30;10.90;;;;;;;20.48;46.18;101250.84;3590679;39;20117;-66
2022/09/02 08:15:47;;;;;;;21.10;10.65;;;;;;;20.55;46.92;101248.38;3590491;39;20068;-65
2022/09/02 08:18:13;;;;;;;24.38;11.18;;;;;;;20.54;46.94;101243.94;3590582;39;20080;-65
2022/09/02 08:20:39;;;;;;;23.67;10.90;;;;;;;20.59;46.46;101247.09;3589315;39;20058;-65
2022/09/02 08:23:07;;;;;;;21.95;10.27;;;;;;;20.64;45.77;101250.22;3589914;39;20055;-65
2022/09/02 08:25:34;;;;;;;23.70;9.75;;;;;;;20.61;46.31;101232.28;3585088;39;20058;-65
2022/09/02 08:28:00;;;;;;;20.35;9.80;;;;;;;20.79;46.33;101245.13;3590530;39;20056;-65
2022/09/02 08:30:26;;;;;;;17.80;8.77;;;;;;;20.86;45.69;101238.91;3589684;39;20043;-65
2022/09/02 08:32:52;;;;;;;18.10;8.18;;;;;;;20.92;45.53;101242.91;3589099;39;20087;-65
2022/09/02 08:35:19;;;;;;;18.42;8.77;;;;;;;21.03;45.63;101239.97;3590151;39;20064;-65
2022/09/02 08:37:45;;;;;;;19.35;8.57;;;;;;;21.04;45.52;101238.09;3582059;39;20060;-65
2022/09/02 08:40:22;;;;;;;18.48;7.53;;;;;;;21.01;45.24;101242.00;3589871;39;20062;-66
2022/09/02 08:42:53;;;;;;;16.70;8.13;;;;;;;21.01;45.56;101217.41;3586455;39;20126;-66
2022/09/02 08:45:33;;;;;;;14.93;7.25;;;;;;;21.21;45.60;101236.41;3591153;39;20063;-66
2022/09/02 08:48:33;;;;;;;16.67;7.50;;;;;;;21.26;44.85;101236.81;3588237;39;20055;-66
2022/09/02 08:51:10;;;;;;;17.15;7.07;;;;;;;21.38;45.21;101229.28;3589431;39;20106;-65
2022/09/02 08:53:58;;;;;;;14.70;6.18;;;;;;;21.44;45.09;101239.56;3588462;39;20064;-65
2022/09/02 08:56:26;;;;;;;11.00;5.72;;;;;;;21.54;45.15;101227.56;3590341;39;20047;-65
2022/09/02 08:58:55;;;;;;;12.32;5.13;;;;;;;21.65;45.25;101234.66;3591364;39;20068;-65
2022/09/02 09:01:49;;;;;;;14.65;5.70;;;;;;;21.75;44.99;101238.16;3590283;39;20060;-65
2022/09/02 09:05:07;;;;;;;10.20;5.00;;;;;;;21.50;44.09;101195.19;3588988;39;20552;-65
2022/09/02 09:08:15;;;;;;;9.43;5.05;;;;;;;21.84;45.26;101241.00;3591855;39;20251;-65
2022/09/02 09:11:14;;;;;;;13.45;4.75;;;;;;;21.86;44.21;101236.22;3588733;39;20048;-65
2022/09/02 09:14:08;;;;;;;9.25;4.30;;;;;;;21.99;45.25;101251.22;3590432;39;20051;-64
2022/09/02 09:16:58;;;;;;;6.70;3.72;;;;;;;22.10;44.08;101247.34;3590691;39;20058;-64
2022/09/02 09:19:52;;;;;;;9.85;3.97;;;;;;;22.13;43.54;101235.22;3591045;39;20386;-65
2022/09/02 09:22:37;;;;;;;5.15;3.50;;;;;;;22.21;43.81;101238.91;3591565;39;20059;-64
2022/09/02 09:25:12;;;;;;;6.70;3.08;;;;;;;22.32;43.38;101234.19;3591279;39;20336;-65
2022/09/02 09:27:39;;;;;;;4.00;2.78;;;;;;;22.39;43.60;101224.28;3587453;39;20051;-65
2022/09/02 09:30:10;;;;;;;9.25;2.95;;;;;;;22.60;43.34;101232.97;3584429;39;20307;-64
2022/09/02 09:32:45;;;;;;;5.60;2.70;;;;;;;22.67;43.16;101233.19;3588699;39;20058;-66
2022/09/02 09:35:17;;;;;;;7.60;2.80;;;;;;;22.82;43.11;101230.69;3590904;39;20076;-65
2022/09/02 09:37:51;;;;;;;10.13;2.60;;;;;;;22.75;42.55;101203.09;3589190;39;20048;-65
2022/09/02 09:40:22;;;;;;;6.53;2.53;;;;;;;23.03;42.93;101228.41;3584196;40;20535;-65
2022/09/02 09:43:12;;;;;;;7.78;2.80;;;;;;;23.23;42.71;101219.88;3590800;39;20394;-65
2022/09/02 09:45:47;;;;;;;5.13;2.58;;;;;;;23.43;42.51;101218.53;3588838;39;20064;-66
2022/09/02 09:48:21;;;;;;;8.82;2.63;;;;;;;23.54;41.77;101214.63;3591609;39;20353;-64
2022/09/02 09:50:56;;;;;;;5.82;2.60;;;;;;;23.72;42.01;101226.31;3587985;39;20072;-64
2022/09/02 09:53:26;;;;;;;7.03;2.53;;;;;;;23.86;41.25;101222.03;3587673;39;20070;-64
2022/09/02 09:56:00;;;;;;;6.60;2.42;;;;;;;23.97;40.53;101212.59;3587577;39;20119;-65
2022/09/02 09:58:37;;;;;;;10.65;2.50;;;;;;;24.25;40.98;101219.41;3588732;39;20310;-65
2022/09/02 10:01:22;;;;;;;5.05;2.60;;;;;;;24.53;39.71;101206.16;3587850;39;20049;-65
2022/09/02 10:04:08;;;;;;;3.45;2.30;;;;;;;25.01;38.67;101204.22;3590058;39;20063;-65
2022/09/02 10:06:42;;;;;;;6.93;2.20;;;;;;;25.43;38.03;101199.34;3588430;39;20290;-65
2022/09/02 10:09:14;;;;;;;3.75;2.03;;;;;;;25.71;35.92;101197.72;3588774;39;20287;-65
2022/09/02 10:12:07;;;;;;;9.68;2.00;;;;;;;25.96;36.34;101197.56;3587836;39;20390;-66
2022/09/02 10:14:47;;;;;;;4.65;2.00;;;;;;;26.14;36.33;101198.06;3588038;39;20389;-64
2022/09/02 10:17:32;;;;;;;8.80;2.35;;;;;;;26.44;35.19;101199.97;3586448;39;20043;-65
2022/09/02 10:20:22;;;;;;;6.50;2.17;;;;;;;26.55;34.61;101194.88;3589735;39;20052;-65
2022/09/02 10:23:16;;;;;;;5.82;2.50;;;;;;;26.80;35.54;101195.44;3586665;39;21916;-65
2022/09/02 10:26:33;;;;;;;2.95;1.85;;;;;;;27.20;34.13;101184.88;3588802;39;20051;-65
2022/09/02 10:29:28;;;;;;;5.65;2.03;;;;;;;27.37;32.13;101184.63;3589288;39;20055;-64
2022/09/02 10:32:12;;;;;;;4.95;1.90;;;;;;;27.53;32.81;101176.97;3589990;39;20052;-64
2022/09/02 10:35:07;;;;;;;2.85;2.05;;;;;;;27.78;33.64;101182.09;3587192;39;20452;-65
2022/09/02 10:38:33;;;;;;;3.70;1.90;;;;;;;28.03;32.36;101182.50;3588964;39;20125;-65
2022/09/02 10:41:08;;;;;;;2.67;1.88;;;;;;;28.22;32.07;101180.94;3583386;39;20052;-64
2022/09/02 10:43:52;;;;;;;4.53;1.92;;;;;;;28.33;32.07;101180.38;3588777;39;20380;-65
2022/09/02 10:46:23;;;;;;;8.60;2.83;;;;;;;28.55;30.57;101172.03;3587131;39;20475;-65
2022/09/02 10:49:34;;;;;;;6.25;4.00;;;;;;;28.85;31.10;101173.44;3586173;39;21244;-64
2022/09/02 10:52:17;;;;;;;6.85;1.83;;;;;;;29.25;30.14;101170.84;3587508;39;20064;-65
2022/09/02 10:55:18;;;;;;;4.38;2.10;;;;;;;29.48;28.18;101158.50;3586740;39;20272;-65
2022/09/02 10:57:59;;;;;;;5.10;1.92;;;;;;;29.76;28.67;101152.81;3559912;39;20063;-65
2022/09/02 11:00:30;;;;;;;8.13;1.85;;;;;;;30.08;27.80;101162.16;3590555;39;20051;-65
2022/09/02 11:03:24;;;;;;;3.17;1.80;;;;;;;30.23;27.06;101156.41;3588640;39;20056;-65
2022/09/02 11:06:03;;;;;;;2.50;1.50;;;;;;;30.58;27.79;101151.41;3589388;39;20056;-65
2022/09/02 11:08:52;;;;;;;5.30;1.88;;;;;;;30.86;26.83;101150.22;3590467;39;20050;-65
2022/09/02 11:11:41;;;;;;;3.97;2.10;;;;;;;31.00;25.89;101140.75;3591916;39;20051;-65
2022/09/02 11:14:31;;;;;;;8.82;2.20;;;;;;;30.99;26.37;101133.53;3587794;39;20055;-65
2022/09/02 11:17:18;;;;;;;4.35;2.08;;;;;;;31.25;26.08;101138.06;3590922;39;20117;-65
2022/09/02 11:20:30;;;;;;;7.95;1.92;;;;;;;31.09;25.18;101124.69;3592132;39;20084;-65
2022/09/02 11:23:24;;;;;;;4.10;1.50;;;;;;;30.84;24.23;101075.50;3589192;39;20093;-64
2022/09/02 11:26:26;;;;;;;4.53;1.67;;;;;;;31.14;23.64;101124.84;3589567;39;20048;-65
2022/09/02 11:29:18;;;;;;;4.20;1.70;;;;;;;31.21;23.56;101123.75;3589475;39;20048;-65
2022/09/02 11:32:02;;;;;;;1.90;1.50;;;;;;;31.37;23.18;101118.78;3588998;39;20048;-64
2022/09/02 11:34:34;;;;;;;3.90;1.58;;;;;;;30.91;23.88;101119.88;3587806;39;20055;-64
2022/09/02 11:37:07;;;;;;;10.63;1.97;;;;;;;30.57;24.32;101121.91;3589530;39;20055;-64
2022/09/02 11:39:55;;;;;;;2.45;1.65;;;;;;;30.68;24.66;101112.91;3588772;39;20274;-65
2022/09/02 11:42:54;;;;;;;1.92;1.50;;;;;;;30.79;24.67;101107.78;3589537;39;20415;-65
2022/09/02 11:45:54;;;;;;;4.22;1.80;;;;;;;31.21;23.70;101115.44;3588876;39;20055;-65
2022/09/02 11:49:02;;;;;;;3.50;1.60;;;;;;;31.87;23.94;101113.19;3589067;39;20134;-65